Copas, Minnesota
Current Conditions -  °F | °C
As of 4:55 PM on Saturday 20 Dec 2014 (Local Time) from KOEO Reporting Station
Overcast Overcast  
Wind Chill: 26°   Ceiling: 1600
Heat Index: 32°   Visibility: 7mi
Dew Point: 32°   Wind: 6mph
Humidity: 99%   Direction: 160°SSE
Pressure: 30.15"   Gusts: NA
Location:  45.2742°N, 92.8215°W
Report Text: KOEO 202255Z AUTO 16005KT 7SM OVC016 00/00 A3015 RMK AO2 T10011002
Loading
Personal Weather Stations






























Interactive Weather Map New forecast layout! Learn more

10-Day Weather Forecast

Advertisements
Track Severe Weather on mobile